Time;durP1;ratioP1;P1;durP2;ratioP2;P2;SDS_P1;SDS_P2;PMS_P1;PMS_P2;Temp;Humidity;BMP_temperature;BMP_pressure;BME280_temperature;BME280_humidity;BME280_pressure;Samples;Min_cycle;Max_cycle;Signal;HPM_P1;HPM_P2
2024/05/06 00:01:37;;;;;;;5.43;4.00;;;16.00;99.90;;;;;;5411351;26;20234;-79
2024/05/06 00:04:03;;;;;;;4.87;4.07;;;16.00;99.90;;;;;;5410975;26;20273;-82
2024/05/06 00:06:28;;;;;;;5.17;3.57;;;15.90;99.90;;;;;;5445878;26;20236;-81
2024/05/06 00:08:54;;;;;;;5.13;3.63;;;15.90;99.90;;;;;;5412527;26;20369;-81
2024/05/06 00:11:20;;;;;;;6.73;4.07;;;15.90;99.90;;;;;;5410465;26;20245;-80
2024/05/06 00:13:45;;;;;;;5.53;3.63;;;15.90;99.90;;;;;;5411717;26;20581;-81
2024/05/06 00:16:11;;;;;;;5.47;3.87;;;15.90;99.90;;;;;;5446907;26;20778;-80
2024/05/06 00:18:36;;;;;;;5.63;3.87;;;15.90;99.90;;;;;;5448361;26;20287;-80
2024/05/06 00:21:03;;;;;;;4.23;3.83;;;15.90;99.90;;;;;;5446939;26;20772;-80
2024/05/06 00:23:28;;;;;;;5.60;4.00;;;15.90;99.90;;;;;;5446723;26;20321;-80
2024/05/06 00:25:54;;;;;;;4.53;4.03;;;15.90;99.90;;;;;;5445293;26;20252;-79
2024/05/06 00:28:20;;;;;;;5.20;3.93;;;15.90;99.90;;;;;;5447879;26;20544;-81
2024/05/06 00:30:45;;;;;;;6.23;3.90;;;15.90;99.90;;;;;;5448833;26;20233;-79
2024/05/06 00:33:11;;;;;;;5.67;3.80;;;15.90;99.90;;;;;;5446411;26;20284;-80
2024/05/06 00:35:36;;;;;;;5.43;4.00;;;16.00;99.90;;;;;;5411489;26;20245;-81
2024/05/06 00:38:02;;;;;;;4.50;4.10;;;15.90;99.90;;;;;;5447542;26;20309;-81
2024/05/06 00:40:27;;;;;;;9.20;3.93;;;16.00;99.90;;;;;;5411888;26;20558;-82
2024/05/06 00:42:58;;;;;;;6.60;3.80;;;16.00;99.90;;;;;;5445719;26;20253;-80
2024/05/06 00:45:24;;;;;;;3.93;3.63;;;15.90;99.90;;;;;;5407858;26;20250;-82
2024/05/06 00:47:50;;;;;;;5.57;3.97;;;16.00;99.90;;;;;;5447741;26;20279;-82
2024/05/06 00:50:17;;;;;;;4.00;3.63;;;16.00;99.90;;;;;;5411167;26;20241;-81
2024/05/06 00:52:43;;;;;;;6.20;3.60;;;15.90;99.90;;;;;;5445714;26;20594;-81
2024/05/06 00:55:10;;;;;;;4.60;3.70;;;15.90;99.90;;;;;;5445031;26;20609;-81
2024/05/06 00:57:36;;;;;;;4.37;3.97;;;15.80;99.90;;;;;;5445974;26;20747;-81
2024/05/06 01:00:03;;;;;;;8.80;4.30;;;15.80;99.90;;;;;;5447794;26;20292;-82
2024/05/06 01:02:28;;;;;;;6.97;3.50;;;15.80;99.90;;;;;;5446789;26;20279;-80
2024/05/06 01:04:55;;;;;;;5.83;3.90;;;15.80;99.90;;;;;;5447548;26;20300;-79
2024/05/06 01:07:21;;;;;;;5.27;4.20;;;15.90;99.90;;;;;;5449794;26;20395;-81
2024/05/06 01:09:46;;;;;;;6.07;4.17;;;15.90;99.90;;;;;;5448676;26;20237;-81
2024/05/06 01:12:12;;;;;;;4.60;4.13;;;15.90;99.90;;;;;;5445855;26;20264;-81
2024/05/06 01:14:37;;;;;;;7.10;4.47;;;15.90;99.90;;;;;;5426231;26;20643;-82
2024/05/06 01:17:03;;;;;;;5.33;4.20;;;15.90;99.90;;;;;;5445858;26;20287;-81
2024/05/06 01:19:29;;;;;;;6.33;4.43;;;15.90;99.90;;;;;;5435456;26;20238;-82
2024/05/06 01:21:59;;;;;;;4.77;3.80;;;15.80;99.90;;;;;;5410240;26;20238;-81
2024/05/06 01:24:25;;;;;;;6.37;3.73;;;15.90;99.90;;;;;;5407960;26;20441;-80
2024/05/06 01:26:50;;;;;;;6.30;4.30;;;15.90;99.90;;;;;;5447462;26;20245;-80
2024/05/06 01:29:16;;;;;;;4.87;4.13;;;15.80;99.90;;;;;;5447440;26;20384;-81
2024/05/06 01:31:41;;;;;;;5.07;4.23;;;15.90;99.90;;;;;;5447288;26;20237;-81
2024/05/06 01:34:07;;;;;;;4.97;3.83;;;15.80;99.90;;;;;;5443580;26;20330;-82
2024/05/06 01:36:33;;;;;;;6.20;4.10;;;15.70;99.90;;;;;;5445628;26;20228;-81
2024/05/06 01:38:58;;;;;;;4.93;4.10;;;15.70;99.90;;;;;;5445367;26;20267;-82
2024/05/06 01:41:23;;;;;;;6.33;4.00;;;15.70;99.90;;;;;;5410316;26;20246;-81
2024/05/06 01:43:49;;;;;;;4.90;4.30;;;15.60;99.90;;;;;;5459916;26;20755;-81
2024/05/06 01:46:16;;;;;;;7.10;4.30;;;15.60;99.90;;;;;;5413224;26;20296;-81
2024/05/06 01:48:42;;;;;;;6.47;4.00;;;15.70;99.90;;;;;;5473945;26;20301;-79
2024/05/06 01:51:07;;;;;;;7.43;4.07;;;15.80;99.90;;;;;;5445804;26;20551;-81
2024/05/06 01:53:33;;;;;;;5.33;3.90;;;15.80;99.90;;;;;;5411995;26;20239;-81
2024/05/06 01:55:59;;;;;;;7.00;3.73;;;15.80;99.90;;;;;;5445316;26;20232;-80
2024/05/06 01:58:24;;;;;;;4.87;3.73;;;15.80;99.90;;;;;;5411334;26;20242;-79
2024/05/06 02:00:50;;;;;;;4.10;3.70;;;15.70;99.90;;;;;;5450877;26;20233;-82
2024/05/06 02:03:15;;;;;;;5.23;3.80;;;15.70;99.90;;;;;;5421605;26;20287;-83
2024/05/06 02:05:41;;;;;;;4.50;3.60;;;15.80;99.90;;;;;;5425674;26;20244;-83
2024/05/06 02:08:07;;;;;;;6.87;3.80;;;15.80;99.90;;;;;;5455069;26;20248;-80
2024/05/06 02:10:32;;;;;;;5.23;3.73;;;15.80;99.90;;;;;;5447761;26;20280;-80
2024/05/06 02:12:58;;;;;;;4.10;3.43;;;15.80;99.90;;;;;;5410945;26;20254;-79
2024/05/06 02:15:23;;;;;;;4.67;3.70;;;15.80;99.90;;;;;;5445951;26;20350;-80
2024/05/06 02:17:49;;;;;;;4.93;3.40;;;15.80;99.90;;;;;;5446936;26;20589;-81
2024/05/06 02:20:14;;;;;;;6.10;3.50;;;15.70;99.90;;;;;;5418739;26;20249;-81
2024/05/06 02:22:40;;;;;;;5.47;3.50;;;15.70;99.90;;;;;;5445817;26;20743;-81
2024/05/06 02:25:06;;;;;;;4.80;3.80;;;15.80;99.90;;;;;;5427584;26;20242;-81
2024/05/06 02:27:31;;;;;;;5.67;3.73;;;15.80;99.90;;;;;;5443981;26;20283;-81
2024/05/06 02:29:57;;;;;;;9.33;3.47;;;15.80;99.90;;;;;;5411126;26;20268;-82
2024/05/06 02:32:22;;;;;;;3.77;3.33;;;15.80;99.90;;;;;;5445781;26;20309;-81
2024/05/06 02:34:48;;;;;;;4.43;3.40;;;15.80;99.90;;;;;;5432041;26;20241;-79
2024/05/06 02:37:14;;;;;;;5.10;3.77;;;15.90;99.90;;;;;;5445170;26;20277;-81
2024/05/06 02:39:39;;;;;;;6.37;3.70;;;15.90;99.90;;;;;;5447262;26;20276;-82
2024/05/06 02:42:05;;;;;;;5.40;3.50;;;15.90;99.90;;;;;;5446962;26;20233;-81
2024/05/06 02:44:30;;;;;;;3.47;3.17;;;15.80;99.90;;;;;;5444177;26;20237;-81
2024/05/06 02:46:56;;;;;;;6.67;3.83;;;15.80;99.90;;;;;;5444742;26;20332;-80
2024/05/06 02:49:21;;;;;;;4.57;3.77;;;15.80;99.90;;;;;;5421485;26;20877;-82
2024/05/06 02:51:47;;;;;;;4.93;3.80;;;15.70;99.90;;;;;;5447302;26;20271;-79
2024/05/06 02:54:12;;;;;;;4.87;3.83;;;15.80;99.90;;;;;;5433636;26;20345;-79
2024/05/06 02:56:38;;;;;;;4.60;3.83;;;15.70;99.90;;;;;;5412604;26;20237;-82
2024/05/06 02:59:03;;;;;;;4.03;3.60;;;15.70;99.90;;;;;;5408845;26;20244;-80
2024/05/06 03:01:29;;;;;;;3.60;3.20;;;15.70;99.90;;;;;;5445044;26;20236;-79
2024/05/06 03:03:54;;;;;;;6.27;3.97;;;15.60;99.90;;;;;;5408275;26;20295;-80
2024/05/06 03:06:20;;;;;;;4.67;3.70;;;15.60;99.90;;;;;;5443947;26;20236;-82
2024/05/06 03:08:45;;;;;;;4.63;3.30;;;15.70;99.90;;;;;;5448111;26;20248;-80
2024/05/06 03:11:11;;;;;;;4.83;3.53;;;15.70;99.90;;;;;;5444154;26;20244;-82
2024/05/06 03:13:38;;;;;;;4.80;3.77;;;15.60;99.90;;;;;;5445016;26;20573;-80
2024/05/06 03:16:04;;;;;;;3.83;3.43;;;15.60;99.90;;;;;;5443248;26;20245;-80
2024/05/06 03:18:30;;;;;;;4.17;3.57;;;15.60;99.90;;;;;;5444611;26;20240;-81
2024/05/06 03:20:56;;;;;;;5.13;3.60;;;15.70;99.90;;;;;;5444956;26;20779;-80
2024/05/06 03:23:22;;;;;;;4.30;3.70;;;15.70;99.90;;;;;;5441324;26;20276;-80
2024/05/06 03:25:47;;;;;;;5.37;3.63;;;15.70;99.90;;;;;;5406670;26;20257;-83
2024/05/06 03:28:13;;;;;;;3.60;3.30;;;15.60;99.90;;;;;;5442897;26;20236;-80
2024/05/06 03:30:38;;;;;;;4.47;3.20;;;15.60;99.90;;;;;;5409001;26;20298;-80
2024/05/06 03:33:04;;;;;;;6.27;3.40;;;15.70;99.90;;;;;;5446373;26;20670;-80
2024/05/06 03:35:30;;;;;;;4.70;3.43;;;15.70;99.90;;;;;;5446911;26;20239;-80
2024/05/06 03:37:56;;;;;;;5.23;3.30;;;15.70;99.90;;;;;;5420556;26;20289;-81
2024/05/06 03:40:21;;;;;;;4.37;3.30;;;15.80;99.90;;;;;;5412942;26;20287;-81
2024/05/06 03:42:47;;;;;;;4.93;3.40;;;15.80;99.90;;;;;;5444198;26;20244;-81
2024/05/06 03:45:12;;;;;;;7.30;3.30;;;15.80;99.90;;;;;;5404676;26;20246;-81
2024/05/06 03:47:38;;;;;;;3.53;3.23;;;15.80;99.90;;;;;;5446386;26;20825;-81
2024/05/06 03:50:04;;;;;;;4.27;3.70;;;15.70;99.90;;;;;;5410640;26;20276;-80
2024/05/06 03:52:32;;;;;;;3.70;3.10;;;15.70;99.90;;;;;;5445986;26;20672;-79
2024/05/06 03:54:58;;;;;;;4.73;3.20;;;15.70;99.90;;;;;;5406908;26;20257;-82
2024/05/06 03:57:23;;;;;;;4.57;3.37;;;15.60;99.90;;;;;;5443890;26;20241;-80
2024/05/06 03:59:49;;;;;;;3.93;3.40;;;15.70;99.90;;;;;;5448149;26;20741;-79
2024/05/06 04:02:14;;;;;;;3.17;2.87;;;15.80;99.90;;;;;;5444829;26;20244;-80
2024/05/06 04:04:40;;;;;;;3.97;3.57;;;15.70;99.90;;;;;;5446956;26;20236;-80
2024/05/06 04:07:06;;;;;;;3.70;3.30;;;15.70;99.90;;;;;;5446297;26;20574;-81
2024/05/06 04:09:31;;;;;;;4.83;3.13;;;15.80;99.90;;;;;;5444713;26;20299;-81
2024/05/06 04:11:57;;;;;;;4.43;3.30;;;15.70;99.90;;;;;;5446397;26;20389;-81
2024/05/06 04:14:22;;;;;;;4.33;3.37;;;15.80;99.90;;;;;;5446248;26;20646;-81
2024/05/06 04:16:48;;;;;;;3.53;3.10;;;15.70;99.90;;;;;;5447976;26;20703;-80
2024/05/06 04:19:13;;;;;;;3.97;3.40;;;15.80;99.90;;;;;;5446260;26;20291;-80
2024/05/06 04:21:39;;;;;;;3.37;3.07;;;15.70;99.90;;;;;;5444727;26;20240;-80
2024/05/06 04:27:07;;;;;;;3.93;3.00;;;15.70;99.90;;;;;;5410466;26;20260;-81
2024/05/06 04:29:33;;;;;;;3.13;2.83;;;15.80;99.90;;;;;;5408941;26;20229;-81
2024/05/06 04:31:59;;;;;;;7.47;3.40;;;15.70;99.90;;;;;;5438472;26;20280;-82
2024/05/06 04:34:24;;;;;;;3.10;2.80;;;15.80;99.90;;;;;;5442834;26;20410;-81
2024/05/06 04:36:50;;;;;;;5.03;3.13;;;15.80;99.90;;;;;;5446118;26;20276;-81
2024/05/06 04:39:15;;;;;;;4.13;3.23;;;15.80;99.90;;;;;;5437186;26;20277;-81
2024/05/06 04:41:41;;;;;;;3.37;3.07;;;15.80;99.90;;;;;;5409404;26;20643;-81
2024/05/06 04:44:07;;;;;;;3.83;3.00;;;15.80;99.90;;;;;;5421592;26;20261;-81
2024/05/06 04:46:32;;;;;;;3.53;3.20;;;15.80;99.90;;;;;;5446855;26;20232;-81
2024/05/06 04:48:58;;;;;;;4.03;2.87;;;15.80;99.90;;;;;;5446463;26;20240;-80
2024/05/06 04:51:23;;;;;;;4.33;3.00;;;15.80;99.90;;;;;;5445375;26;20275;-82
2024/05/06 04:53:49;;;;;;;4.10;3.10;;;15.80;99.90;;;;;;5408851;26;20744;-81
2024/05/06 04:56:15;;;;;;;3.97;3.50;;;15.70;99.90;;;;;;5446024;26;20275;-81
2024/05/06 04:58:40;;;;;;;4.67;3.40;;;15.70;99.90;;;;;;5411431;26;20353;-81
2024/05/06 05:01:06;;;;;;;3.97;3.27;;;15.80;99.90;;;;;;5443564;26;20244;-81
2024/05/06 05:03:31;;;;;;;4.40;3.37;;;15.80;99.90;;;;;;5409525;26;20250;-81
2024/05/06 05:05:57;;;;;;;4.80;3.17;;;15.90;99.90;;;;;;5444840;26;20602;-82
2024/05/06 05:08:22;;;;;;;5.67;3.43;;;15.70;99.90;;;;;;5409488;26;20250;-81
2024/05/06 05:10:48;;;;;;;3.73;2.93;;;15.80;99.90;;;;;;5443199;26;20256;-81
2024/05/06 05:13:13;;;;;;;5.33;2.97;;;15.80;99.90;;;;;;5444559;26;20244;-81
2024/05/06 05:15:39;;;;;;;5.47;3.90;;;15.80;99.90;;;;;;5444383;26;20716;-82
2024/05/06 05:18:04;;;;;;;6.87;3.33;;;15.80;99.90;;;;;;5409476;26;20257;-81
2024/05/06 05:20:30;;;;;;;4.03;2.77;;;15.80;99.90;;;;;;5442609;26;20678;-80
2024/05/06 05:22:55;;;;;;;8.33;3.50;;;15.80;99.90;;;;;;5409748;26;20254;-80
2024/05/06 05:25:21;;;;;;;5.90;3.80;;;15.70;99.90;;;;;;5441842;26;20236;-81
2024/05/06 05:27:46;;;;;;;6.47;3.60;;;15.70;99.90;;;;;;5446287;26;20281;-81
2024/05/06 05:30:12;;;;;;;5.43;3.17;;;15.80;99.90;;;;;;5444633;26;20248;-81
2024/05/06 05:32:37;;;;;;;4.03;2.90;;;15.80;99.90;;;;;;5409004;26;20759;-81
2024/05/06 05:35:05;;;;;;;5.53;3.63;;;15.80;99.90;;;;;;5437473;26;20359;-81
2024/05/06 05:37:31;;;;;;;4.33;3.83;;;15.70;99.90;;;;;;5409936;26;20249;-81
2024/05/06 05:39:56;;;;;;;3.40;3.10;;;15.80;99.90;;;;;;5443148;26;20734;-81
2024/05/06 05:42:22;;;;;;;3.43;3.13;;;15.80;99.90;;;;;;5444080;26;20241;-81
2024/05/06 05:44:47;;;;;;;3.00;2.50;;;15.90;99.90;;;;;;5441233;26;20238;-81
2024/05/06 05:47:13;;;;;;;3.77;2.70;;;15.90;99.90;;;;;;5446078;26;20237;-82
2024/05/06 05:49:38;;;;;;;5.73;2.80;;;15.80;99.90;;;;;;5444976;26;20245;-82
2024/05/06 05:52:04;;;;;;;3.20;2.90;;;15.80;99.90;;;;;;5447478;26;20290;-81
2024/05/06 05:54:30;;;;;;;3.40;3.10;;;15.80;99.90;;;;;;5443604;26;20346;-81
2024/05/06 05:56:55;;;;;;;3.37;2.77;;;15.80;99.90;;;;;;5444635;26;20585;-81
2024/05/06 05:59:21;;;;;;;3.03;2.73;;;15.80;99.90;;;;;;5443354;26;20809;-80
2024/05/06 06:01:46;;;;;;;4.27;2.60;;;15.80;99.90;;;;;;5446015;26;20930;-80
2024/05/06 06:04:13;;;;;;;6.20;3.20;;;15.80;99.90;;;;;;5443341;26;20237;-82
2024/05/06 06:06:39;;;;;;;2.67;2.43;;;15.80;99.90;;;;;;5445366;26;20301;-81
2024/05/06 06:09:05;;;;;;;3.47;3.10;;;15.80;99.90;;;;;;5409375;26;20249;-81
2024/05/06 06:11:31;;;;;;;6.70;2.90;;;15.90;99.90;;;;;;5419539;26;20249;-81
2024/05/06 06:13:56;;;;;;;5.50;3.00;;;15.90;99.90;;;;;;5443362;26;20232;-81
2024/05/06 06:16:22;;;;;;;4.57;3.20;;;16.00;99.90;;;;;;5408625;26;20271;-81
2024/05/06 06:18:47;;;;;;;3.47;2.70;;;15.90;99.90;;;;;;5443612;26;20354;-82
2024/05/06 06:21:13;;;;;;;3.60;3.30;;;15.90;99.90;;;;;;5445130;26;20649;-81
2024/05/06 06:23:41;;;;;;;6.03;2.90;;;15.90;99.90;;;;;;5439951;26;20349;-81
2024/05/06 06:26:06;;;;;;;3.30;2.43;;;15.90;99.90;;;;;;5441277;26;20278;-80
2024/05/06 06:28:32;;;;;;;6.90;3.17;;;15.90;99.90;;;;;;5444826;26;20232;-81
2024/05/06 06:30:57;;;;;;;4.37;2.67;;;15.90;99.90;;;;;;5443378;26;20336;-79
2024/05/06 06:33:23;;;;;;;3.27;2.90;;;15.90;99.90;;;;;;5445064;26;20248;-80
2024/05/06 06:35:48;;;;;;;7.27;3.03;;;15.80;99.90;;;;;;5443460;26;20249;-81
2024/05/06 06:38:14;;;;;;;3.47;3.10;;;15.90;99.90;;;;;;5445309;26;20594;-79
2024/05/06 06:40:40;;;;;;;6.47;3.33;;;15.90;99.90;;;;;;5448222;26;20241;-79
2024/05/06 06:43:05;;;;;;;5.67;3.57;;;15.90;99.90;;;;;;5414549;26;20242;-79
2024/05/06 06:45:31;;;;;;;5.07;3.50;;;15.90;99.90;;;;;;5405923;26;20242;-81
2024/05/06 06:47:57;;;;;;;5.10;3.57;;;15.90;99.90;;;;;;5442077;26;20298;-80
2024/05/06 06:50:22;;;;;;;11.87;4.90;;;15.90;99.90;;;;;;5408222;26;20281;-80
2024/05/06 06:52:48;;;;;;;6.63;5.33;;;15.90;99.90;;;;;;5441760;26;20793;-80
2024/05/06 06:55:14;;;;;;;7.73;5.10;;;16.00;99.90;;;;;;5443062;26;20263;-80
2024/05/06 06:57:39;;;;;;;6.93;4.50;;;16.00;99.90;;;;;;5443740;26;20335;-79
2024/05/06 07:00:05;;;;;;;4.97;3.93;;;16.00;99.90;;;;;;5445840;26;20289;-81
2024/05/06 07:02:31;;;;;;;9.70;4.30;;;16.10;99.90;;;;;;5444652;26;20859;-82
2024/05/06 07:04:56;;;;;;;7.40;3.57;;;16.10;99.90;;;;;;5443200;26;20240;-81
2024/05/06 07:07:22;;;;;;;4.83;3.37;;;16.10;99.90;;;;;;5412551;26;20351;-82
2024/05/06 07:09:47;;;;;;;7.83;3.90;;;16.20;99.90;;;;;;5445784;26;20654;-82
2024/05/06 07:12:13;;;;;;;5.80;3.27;;;16.20;99.90;;;;;;5448308;26;20238;-80
2024/05/06 07:14:40;;;;;;;3.33;2.87;;;16.20;99.90;;;;;;5446555;26;20249;-79
2024/05/06 07:17:07;;;;;;;5.93;3.60;;;16.10;99.90;;;;;;5447945;26;20237;-80
2024/05/06 07:19:32;;;;;;;4.33;3.13;;;16.10;99.90;;;;;;5445741;26;20780;-80
2024/05/06 07:21:58;;;;;;;4.83;3.60;;;16.20;99.90;;;;;;5411327;26;20246;-80
2024/05/06 07:24:23;;;;;;;4.90;3.00;;;16.30;99.90;;;;;;5441173;26;20245;-82
2024/05/06 07:26:49;;;;;;;4.20;3.23;;;16.40;99.90;;;;;;5446163;26;20230;-80
2024/05/06 07:29:14;;;;;;;6.83;3.20;;;16.50;99.90;;;;;;5444794;26;20241;-80
2024/05/06 07:31:40;;;;;;;5.17;3.47;;;16.50;99.90;;;;;;5448265;26;20261;-82
2024/05/06 07:34:06;;;;;;;5.10;3.53;;;16.50;99.90;;;;;;5446512;26;20850;-82
2024/05/06 07:36:31;;;;;;;4.37;3.40;;;16.40;99.90;;;;;;5449063;26;20239;-82
2024/05/06 07:38:57;;;;;;;5.80;3.33;;;16.40;99.90;;;;;;5445689;26;20246;-81
2024/05/06 07:41:23;;;;;;;6.80;3.33;;;16.50;99.90;;;;;;5411158;26;20278;-81
2024/05/06 07:43:48;;;;;;;5.53;3.33;;;16.60;99.90;;;;;;5429863;26;20290;-82
2024/05/06 07:46:14;;;;;;;4.40;3.37;;;16.80;99.90;;;;;;5412295;26;20232;-81
2024/05/06 07:48:41;;;;;;;3.80;3.07;;;16.90;99.90;;;;;;5442886;26;20241;-82
2024/05/06 07:51:07;;;;;;;6.10;3.40;;;16.80;99.90;;;;;;5446047;26;20229;-81
2024/05/06 07:53:33;;;;;;;5.83;3.50;;;16.90;99.90;;;;;;5416343;26;20386;-81
2024/05/06 07:55:59;;;;;;;5.03;3.20;;;17.00;99.90;;;;;;5410941;26;20278;-81
2024/05/06 07:58:26;;;;;;;5.50;3.17;;;17.10;99.90;;;;;;5446291;26;20239;-81
2024/05/06 08:00:52;;;;;;;4.97;3.77;;;17.20;99.90;;;;;;5411100;26;20248;-82
2024/05/06 08:03:17;;;;;;;8.33;3.47;;;17.20;99.90;;;;;;5446208;26;20849;-79
2024/05/06 08:05:43;;;;;;;4.90;3.33;;;17.30;99.90;;;;;;5443134;26;20699;-80
2024/05/06 08:08:08;;;;;;;6.77;3.63;;;17.20;99.90;;;;;;5445266;26;21157;-80
2024/05/06 08:10:34;;;;;;;5.83;3.50;;;17.30;99.90;;;;;;5440772;26;20812;-80
2024/05/06 08:12:59;;;;;;;5.27;3.30;;;17.30;99.90;;;;;;5411431;26;20323;-81
2024/05/06 08:15:25;;;;;;;7.33;3.90;;;17.40;99.90;;;;;;5445310;26;20283;-81
2024/05/06 08:17:50;;;;;;;66.93;44.23;;;17.50;99.90;;;;;;5447288;26;20251;-81
2024/05/06 08:20:16;;;;;;;7.73;4.43;;;17.50;99.90;;;;;;5445744;26;20251;-80
2024/05/06 08:22:41;;;;;;;5.03;3.13;;;17.50;99.90;;;;;;5447443;26;20243;-81
2024/05/06 08:25:07;;;;;;;9.90;4.70;;;17.30;99.90;;;;;;5442410;26;20274;-81
2024/05/06 08:27:33;;;;;;;4.03;2.77;;;17.40;99.90;;;;;;5410031;26;20299;-82
2024/05/06 08:29:58;;;;;;;4.83;2.97;;;17.40;99.90;;;;;;5448791;26;20317;-81
2024/05/06 08:32:24;;;;;;;6.43;2.97;;;17.40;99.90;;;;;;5415691;26;20240;-81
2024/05/06 08:34:50;;;;;;;2.80;2.40;;;17.50;99.90;;;;;;5445162;26;20248;-82
2024/05/06 08:37:16;;;;;;;3.93;3.03;;;17.40;99.90;;;;;;5445932;26;20498;-82
2024/05/06 08:39:41;;;;;;;4.27;2.77;;;17.50;99.90;;;;;;5449225;26;20244;-81
2024/05/06 08:42:07;;;;;;;3.43;2.50;;;17.50;99.90;;;;;;5448281;26;20238;-81
2024/05/06 08:44:34;;;;;;;3.17;2.30;;;17.50;99.90;;;;;;5441917;26;20793;-80
2024/05/06 08:47:01;;;;;;;3.17;2.30;;;17.50;99.90;;;;;;5409600;26;20289;-80
2024/05/06 08:49:30;;;;;;;3.17;2.63;;;17.60;99.90;;;;;;5446076;26;20246;-80
2024/05/06 08:51:59;;;;;;;3.83;2.13;;;17.60;99.90;;;;;;5410472;26;20279;-80
2024/05/06 08:54:26;;;;;;;2.37;2.00;;;17.70;99.90;;;;;;5423077;26;20577;-80
2024/05/06 08:56:53;;;;;;;5.37;2.47;;;17.70;99.90;;;;;;5446362;26;20243;-80
2024/05/06 08:59:21;;;;;;;5.97;2.60;;;17.70;99.90;;;;;;5444861;26;20450;-81
2024/05/06 09:01:47;;;;;;;8.53;2.90;;;17.60;99.90;;;;;;5409785;26;20729;-80
2024/05/06 09:04:16;;;;;;;3.30;2.10;;;17.60;99.90;;;;;;5443518;26;20289;-81
2024/05/06 09:06:43;;;;;;;5.37;2.70;;;17.70;99.90;;;;;;5410338;26;20245;-82
2024/05/06 09:09:09;;;;;;;2.80;2.50;;;17.70;99.90;;;;;;5446411;26;20549;-80
2024/05/06 09:11:38;;;;;;;3.17;2.40;;;17.70;99.90;;;;;;5421720;26;20379;-81
2024/05/06 09:14:07;;;;;;;5.77;2.73;;;17.60;99.90;;;;;;5444797;26;20264;-80
2024/05/06 09:16:54;;;;;;;10.33;2.93;;;17.70;99.90;;;;;;5409622;26;20297;-82
2024/05/06 09:19:23;;;;;;;4.83;2.50;;;17.80;99.90;;;;;;5410899;26;20245;-82
2024/05/06 09:21:49;;;;;;;4.00;2.20;;;17.90;99.90;;;;;;5443855;26;20240;-81
2024/05/06 09:24:14;;;;;;;5.73;2.37;;;18.00;99.90;;;;;;5442634;26;20240;-81
2024/05/06 09:26:40;;;;;;;4.33;2.77;;;18.00;99.90;;;;;;5444171;26;20244;-82
2024/05/06 09:29:06;;;;;;;6.90;2.87;;;18.00;99.90;;;;;;5444709;26;20663;-80
2024/05/06 09:31:32;;;;;;;4.40;2.80;;;17.90;99.90;;;;;;5446839;26;20244;-83
2024/05/06 09:34:03;;;;;;;3.97;2.60;;;17.90;99.90;;;;;;5445000;26;20244;-80
2024/05/06 09:36:31;;;;;;;2.90;2.10;;;18.00;99.90;;;;;;5409681;26;20245;-81
2024/05/06 09:39:00;;;;;;;7.13;2.43;;;18.10;99.90;;;;;;5408926;26;20325;-82
2024/05/06 09:41:29;;;;;;;4.67;2.27;;;18.20;99.90;;;;;;5446388;26;20986;-82
2024/05/06 09:43:57;;;;;;;5.70;2.43;;;18.10;99.90;;;;;;5442933;26;20295;-81
2024/05/06 09:46:24;;;;;;;5.07;2.23;;;18.20;99.90;;;;;;5444712;26;20259;-80
2024/05/06 09:48:50;;;;;;;2.93;2.37;;;18.20;99.90;;;;;;5445047;26;20248;-81
2024/05/06 09:51:16;;;;;;;3.97;2.27;;;18.40;99.90;;;;;;5409679;26;20248;-80
2024/05/06 09:53:42;;;;;;;2.20;2.00;;;18.40;99.90;;;;;;5432633;26;20238;-82
2024/05/06 09:56:09;;;;;;;2.67;2.10;;;18.40;99.90;;;;;;5407433;26;20326;-82
2024/05/06 09:58:35;;;;;;;3.07;2.53;;;18.40;99.90;;;;;;5445366;26;20240;-82
2024/05/06 10:01:04;;;;;;;2.33;2.13;;;18.50;99.90;;;;;;5446472;26;20309;-82
2024/05/06 10:03:31;;;;;;;2.87;1.90;;;18.40;99.90;;;;;;5446114;26;20243;-81
2024/05/06 10:05:58;;;;;;;1.80;1.70;;;18.50;99.90;;;;;;5446454;26;20240;-81
2024/05/06 10:08:25;;;;;;;2.67;1.80;;;18.50;99.90;;;;;;5444282;26;20325;-82
2024/05/06 10:10:51;;;;;;;2.27;1.90;;;18.50;99.90;;;;;;5441245;26;20296;-81
2024/05/06 10:13:17;;;;;;;2.90;2.10;;;18.50;99.90;;;;;;5408938;26;20229;-81
2024/05/06 10:15:46;;;;;;;2.33;2.13;;;18.50;99.90;;;;;;5419482;26;20253;-81
2024/05/06 10:18:25;;;;;;;4.23;2.50;;;18.60;99.90;;;;;;5465966;26;20260;-80
2024/05/06 10:20:57;;;;;;;4.07;2.00;;;18.60;99.90;;;;;;5434208;26;20229;-82
2024/05/06 10:23:23;;;;;;;2.50;1.80;;;18.60;99.90;;;;;;5421340;26;20229;-80
2024/05/06 10:25:52;;;;;;;3.60;2.07;;;18.60;99.90;;;;;;5449677;26;20325;-80
2024/05/06 10:28:18;;;;;;;2.20;2.00;;;18.50;99.90;;;;;;5451240;26;20247;-81
2024/05/06 10:30:47;;;;;;;3.57;2.20;;;18.50;99.90;;;;;;5452239;26;20236;-81
2024/05/06 10:33:13;;;;;;;3.37;2.10;;;18.60;99.90;;;;;;5446894;26;20537;-79
2024/05/06 10:35:39;;;;;;;2.63;1.90;;;18.60;99.90;;;;;;5410262;26;20245;-81
2024/05/06 10:38:05;;;;;;;2.67;1.90;;;18.60;99.90;;;;;;5446354;26;20592;-81
2024/05/06 10:40:31;;;;;;;3.27;2.07;;;18.70;99.90;;;;;;5410711;26;20241;-81
2024/05/06 10:42:57;;;;;;;4.03;2.20;;;18.70;99.90;;;;;;5446683;26;20244;-80
2024/05/06 10:45:24;;;;;;;5.60;2.70;;;18.60;99.90;;;;;;5409764;26;20288;-82
2024/05/06 10:47:50;;;;;;;4.23;2.20;;;18.70;99.90;;;;;;5447189;26;20252;-81
2024/05/06 10:50:17;;;;;;;2.93;2.07;;;18.70;99.90;;;;;;5449349;26;20720;-80
2024/05/06 10:52:43;;;;;;;2.17;1.97;;;18.70;99.90;;;;;;5449634;26;20716;-80
2024/05/06 10:55:08;;;;;;;2.60;1.80;;;18.80;99.90;;;;;;5444302;26;20259;-80
2024/05/06 10:57:34;;;;;;;2.90;1.80;;;18.80;99.90;;;;;;5412499;26;20275;-81
2024/05/06 10:59:59;;;;;;;3.73;1.90;;;18.80;99.90;;;;;;5427016;26;20241;-82
2024/05/06 11:02:25;;;;;;;1.80;1.70;;;18.70;99.90;;;;;;5446795;26;20309;-80
2024/05/06 11:04:52;;;;;;;3.17;1.97;;;18.80;99.90;;;;;;5449971;26;20759;-80
2024/05/06 11:07:21;;;;;;;2.27;2.07;;;18.80;99.90;;;;;;5449027;26;20737;-80
2024/05/06 11:09:51;;;;;;;1.77;1.50;;;18.80;99.90;;;;;;5447654;26;20240;-80
2024/05/06 11:12:19;;;;;;;2.20;2.00;;;18.90;99.90;;;;;;5411646;26;20241;-81
2024/05/06 11:14:50;;;;;;;5.17;2.03;;;18.90;99.90;;;;;;5411709;26;20249;-80
2024/05/06 11:17:17;;;;;;;2.87;1.83;;;18.90;99.90;;;;;;5412797;26;20264;-81
2024/05/06 11:19:46;;;;;;;2.00;1.60;;;19.00;99.90;;;;;;5411097;26;20237;-82
2024/05/06 11:22:22;;;;;;;1.70;1.27;;;18.90;99.90;;;;;;5446949;26;20256;-81
2024/05/06 11:24:50;;;;;;;1.73;1.30;;;18.90;99.90;;;;;;5410295;26;20612;-80
2024/05/06 11:27:18;;;;;;;2.23;1.30;;;18.90;99.90;;;;;;5455311;26;20340;-81
2024/05/06 11:29:45;;;;;;;2.97;1.67;;;18.90;99.90;;;;;;5412221;26;20245;-81
2024/05/06 11:32:10;;;;;;;1.83;1.50;;;18.90;99.90;;;;;;5414025;26;20241;-82
2024/05/06 11:34:36;;;;;;;1.90;1.60;;;18.90;99.90;;;;;;5449458;26;20248;-80
2024/05/06 11:37:02;;;;;;;1.90;1.50;;;18.80;99.90;;;;;;5417751;26;20249;-80
2024/05/06 11:39:27;;;;;;;2.43;1.20;;;18.80;99.90;;;;;;5447440;26;20728;-81
2024/05/06 11:41:53;;;;;;;1.90;1.70;;;18.90;99.90;;;;;;5448789;26;20240;-81
2024/05/06 11:44:18;;;;;;;9.47;5.93;;;18.90;99.90;;;;;;5423947;26;20608;-79
2024/05/06 11:46:44;;;;;;;4.60;3.00;;;18.80;99.90;;;;;;5445372;26;20245;-81
2024/05/06 11:49:09;;;;;;;3.33;2.07;;;18.90;99.90;;;;;;5412909;26;20242;-81
2024/05/06 11:51:35;;;;;;;3.23;1.60;;;18.80;99.90;;;;;;5446654;26;20527;-82
2024/05/06 11:54:01;;;;;;;2.97;1.80;;;18.70;99.90;;;;;;5423496;26;20248;-78
2024/05/06 11:56:26;;;;;;;1.80;1.70;;;18.70;99.90;;;;;;5411429;26;20279;-81
2024/05/06 11:58:52;;;;;;;2.53;1.60;;;18.70;99.90;;;;;;5446578;26;20236;-81
2024/05/06 12:01:17;;;;;;;1.90;1.47;;;18.70;99.90;;;;;;5411356;26;20265;-81
2024/05/06 12:03:43;;;;;;;1.90;1.40;;;18.80;99.90;;;;;;5448152;26;20369;-78
2024/05/06 12:06:08;;;;;;;2.47;1.67;;;18.90;99.90;;;;;;5449640;26;20298;-80
2024/05/06 12:08:34;;;;;;;5.97;1.90;;;18.90;99.90;;;;;;5447558;26;20328;-81
2024/05/06 12:11:00;;;;;;;3.30;2.10;;;19.00;99.90;;;;;;5445436;26;20344;-79
2024/05/06 12:13:25;;;;;;;3.70;2.30;;;18.90;99.90;;;;;;5445999;26;20332;-80
2024/05/06 12:15:51;;;;;;;4.57;3.27;;;19.00;99.90;;;;;;5411574;26;20653;-79
2024/05/06 12:18:16;;;;;;;4.23;3.07;;;18.90;99.90;;;;;;5444664;26;20244;-81
2024/05/06 12:20:42;;;;;;;5.27;3.90;;;18.90;99.90;;;;;;5447072;26;20260;-82
2024/05/06 12:23:07;;;;;;;3.97;3.20;;;18.90;99.90;;;;;;5409232;26;20798;-81
2024/05/06 12:25:33;;;;;;;4.63;3.40;;;18.90;99.90;;;;;;5443467;26;20244;-82
2024/05/06 12:27:59;;;;;;;6.60;3.27;;;18.80;99.90;;;;;;5448797;26;20554;-82
2024/05/06 12:30:26;;;;;;;7.93;3.50;;;18.70;99.90;;;;;;5449957;26;20275;-82
2024/05/06 12:32:52;;;;;;;4.77;3.73;;;18.80;99.90;;;;;;5445800;26;20244;-82
2024/05/06 12:35:17;;;;;;;6.20;3.47;;;18.70;99.90;;;;;;5436437;26;21149;-81
2024/05/06 12:37:43;;;;;;;5.70;4.30;;;18.70;99.90;;;;;;5412613;26;20530;-81
2024/05/06 12:40:09;;;;;;;6.20;3.50;;;18.70;99.90;;;;;;5409913;26;20276;-81
2024/05/06 12:42:34;;;;;;;7.23;4.00;;;18.70;99.90;;;;;;5446562;26;20634;-80